Polaris — LZFK — position and weather

sailwx.info

Track history (hours):
 
Tides and Currents Weather Stations Pressure Air Temp Water Temp Dewpoint Dewpoint Depression Visibility Wind Speed Wind Dir Waves Ship Positions

Polaris

Last reported at 2018-Aug-14 06:22 UTC. Time now 2018-Aug-14 15:21 UTC.
Position N 42°30' E 027°35'.

Length 82 m; draft 5.6 m.

Type: Ship (hazmat cat C). MMSI: 207345200.

Date/timePositionNaut miles runAvg speedWind from/ knotsBaromVisibWave heightAir tempDewpointWater temp
2018-Aug-14 06:22N 42°30' E 027°35'0 0.0
2018-Aug-14 05:55N 42°30' E 027°35'0 0.0
2018-Aug-14 05:22N 42°30' E 027°35'0 0.0
2018-Aug-14 04:55N 42°30' E 027°35'0 0.0
2018-Aug-14 04:22N 42°30' E 027°35'0 0.0
2018-Aug-14 03:52N 42°30' E 027°35'0 0.0
2018-Aug-14 03:28N 42°30' E 027°35'0 0.0
2018-Aug-14 02:34N 42°30' E 027°35'  
2018-Aug-08 04:18N 43°02' E 028°16'4 8.0
2018-Aug-08 03:52N 43°05' E 028°19'16 7.6
2018-Aug-08 01:45N 43°17' E 028°34'3 7.4
2018-Aug-08 01:25N 43°19' E 028°36'10 7.2
2018-Aug-08 00:04N 43°27' E 028°43'0 7.2
2018-Aug-08 00:00N 43°27' E 028°43'4 7.2
2018-Aug-07 23:30N 43°31' E 028°45'3 7.0
2018-Aug-07 23:00N 43°34' E 028°46'4 7.1
2018-Aug-07 22:30N 43°38' E 028°47'4 7.4
2018-Aug-07 22:00N 43°41' E 028°48'4 7.3
2018-Aug-07 21:30N 43°45' E 028°50'4 7.3
2018-Aug-07 21:00N 43°48' E 028°51'4 7.3
2018-Aug-07 20:30N 43°52' E 028°52'4 7.1
2018-Aug-07 20:00N 43°55' E 028°52'3 6.9
2018-Aug-07 19:30N 43°59' E 028°53'3 6.8
2018-Aug-07 19:00N 44°02' E 028°52'3 6.7
2018-Aug-07 18:30N 44°05' E 028°51'4 7.1
2018-Aug-07 18:00N 44°09' E 028°51'3 6.2
2018-Aug-07 17:30N 44°12' E 028°49'3 6.6
2018-Aug-07 17:00N 44°14' E 028°46'3 6.6
2018-Aug-07 16:30N 44°17' E 028°43'3 6.4
2018-Aug-07 16:00N 44°20' E 028°41'1 1.4
2018-Aug-07 15:28N 44°20' E 028°40'0 0.0
2018-Aug-07 14:59N 44°20' E 028°40'0 0.0
2018-Aug-07 14:29N 44°20' E 028°40'0 0.0
2018-Aug-07 13:59N 44°20' E 028°40'0 0.0
2018-Aug-07 13:28N 44°20' E 028°40'0 0.0
2018-Aug-07 12:59N 44°20' E 028°40'0 0.0
2018-Aug-07 12:29N 44°20' E 028°40'0 0.0
2018-Aug-07 11:59N 44°20' E 028°40'0 0.0
2018-Aug-07 11:29N 44°20' E 028°40'0 0.0
2018-Aug-07 10:56N 44°20' E 028°40'0 0.0
2018-Aug-07 10:29N 44°20' E 028°40'0 0.0
2018-Aug-07 09:58N 44°20' E 028°40'0 0.0
2018-Aug-07 09:29N 44°20' E 028°40'0 0.0
2018-Aug-07 08:16N 44°20' E 028°40'0 0.0
2018-Aug-07 07:50N 44°20' E 028°40'0 0.0
2018-Aug-07 07:04N 44°20' E 028°40'0 0.0
2018-Aug-07 06:58N 44°20' E 028°40'0 0.0
2018-Aug-07 06:25N 44°20' E 028°40'0 0.0
2018-Aug-07 05:58N 44°20' E 028°40'0 0.0
2018-Aug-07 05:29N 44°20' E 028°40'0 0.0
2018-Aug-07 04:59N 44°20' E 028°40'0 0.0
2018-Aug-07 04:29N 44°20' E 028°40'0 0.0
2018-Aug-07 03:58N 44°20' E 028°40'0 0.0
2018-Aug-07 03:29N 44°20' E 028°40'0 0.0
2018-Aug-07 02:59N 44°20' E 028°40'0 0.0
2018-Aug-07 02:28N 44°20' E 028°40'0 0.0
2018-Aug-07 01:59N 44°20' E 028°40'0 0.0
2018-Aug-07 01:28N 44°20' E 028°40'0 0.0
2018-Aug-07 00:59N 44°20' E 028°40'0 0.0
2018-Aug-07 00:23N 44°20' E 028°40'0 0.0
2018-Aug-06 23:59N 44°20' E 028°40'0 0.0
2018-Aug-06 23:26N 44°20' E 028°40'0 0.0
2018-Aug-06 22:58N 44°20' E 028°40'0 0.0
2018-Aug-06 22:29N 44°20' E 028°40'0 0.0
2018-Aug-06 21:58N 44°20' E 028°40'0 0.0
2018-Aug-06 21:29N 44°20' E 028°40'0 0.0
2018-Aug-06 20:59N 44°20' E 028°40'0 0.0
2018-Aug-06 20:28N 44°20' E 028°40'0 0.0
2018-Aug-06 19:59N 44°20' E 028°40'0 0.0
2018-Aug-06 19:26N 44°20' E 028°40'0 0.0
2018-Aug-06 18:58N 44°20' E 028°40'0 0.0
2018-Aug-06 18:14N 44°20' E 028°40'0 0.0
2018-Aug-06 17:59N 44°20' E 028°40'0 0.0
2018-Aug-06 17:28N 44°20' E 028°40'0 0.0
2018-Aug-06 16:58N 44°20' E 028°40'0 0.0
2018-Aug-06 16:28N 44°20' E 028°40'0 0.0
2018-Aug-06 15:56N 44°20' E 028°40'0 0.0
2018-Aug-06 15:29N 44°20' E 028°40'0 0.0
2018-Aug-06 14:53N 44°20' E 028°40'0 0.0
2018-Aug-06 14:25N 44°20' E 028°40'0 0.0
2018-Aug-06 13:58N 44°20' E 028°40'0 0.0
2018-Aug-06 13:29N 44°20' E 028°40'0 0.0
2018-Aug-06 12:58N 44°20' E 028°40'0 0.0
2018-Aug-06 12:29N 44°20' E 028°40'0 0.0
2018-Aug-06 11:56N 44°20' E 028°40'0 0.0
2018-Aug-06 11:30N 44°20' E 028°40'0 0.2
2018-Aug-06 11:00N 44°20' E 028°40'2 4.5
2018-Aug-06 10:30N 44°18' E 028°42'3 6.6
2018-Aug-06 10:00N 44°15' E 028°45'3 6.7
2018-Aug-06 09:30N 44°14' E 028°49'3 6.4
2018-Aug-06 09:00N 44°11' E 028°52'2 3.9
2018-Aug-06 08:30N 44°10' E 028°51'1 2.5
2018-Aug-06 07:59N 44°09' E 028°49'0 0.0
2018-Aug-06 07:29N 44°09' E 028°49'0 0.0
2018-Aug-06 06:59N 44°09' E 028°49'0 0.0
2018-Aug-06 06:23N 44°09' E 028°49'0 0.0
2018-Aug-06 05:56N 44°09' E 028°49'0 0.0
2018-Aug-06 05:29N 44°09' E 028°49'0 0.0
2018-Aug-06 04:59N 44°09' E 028°49'0 0.0
2018-Aug-06 04:29N 44°09' E 028°49'0 0.0
2018-Aug-06 03:59N 44°09' E 028°49'0 0.0
2018-Aug-06 03:29N 44°09' E 028°49'0 0.0
2018-Aug-06 02:59N 44°09' E 028°49'0 0.0
2018-Aug-06 02:29N 44°09' E 028°49'0 0.0
2018-Aug-06 01:59N 44°09' E 028°49'0 0.0
2018-Aug-06 01:29N 44°09' E 028°49'0 0.0
2018-Aug-06 00:59N 44°09' E 028°49'0 0.0
2018-Aug-06 00:29N 44°09' E 028°49'0 0.0
2018-Aug-05 23:56N 44°09' E 028°49'0 0.0
2018-Aug-05 23:26N 44°09' E 028°49'0 0.0
2018-Aug-05 22:56N 44°09' E 028°49'0 0.0
2018-Aug-05 22:29N 44°09' E 028°49'0 0.0
2018-Aug-05 21:56N 44°09' E 028°49'0 0.0
2018-Aug-05 21:29N 44°09' E 028°49'0 0.0
2018-Aug-05 20:59N 44°09' E 028°49'0 0.1
2018-Aug-05 20:29N 44°09' E 028°49'0 0.0
2018-Aug-05 19:59N 44°09' E 028°49'0 0.0
2018-Aug-05 19:26N 44°09' E 028°49'0 0.0
2018-Aug-05 18:59N 44°09' E 028°49'0 0.0
2018-Aug-05 18:29N 44°09' E 028°49'0 0.0
2018-Aug-05 17:59N 44°09' E 028°49'0 0.1
2018-Aug-05 17:29N 44°09' E 028°49'0 0.0
2018-Aug-05 16:56N 44°09' E 028°49'0 0.0
2018-Aug-05 16:26N 44°09' E 028°49'0 0.0
2018-Aug-05 15:56N 44°09' E 028°49'0 0.1
2018-Aug-05 15:29N 44°09' E 028°49'0 0.0
2018-Aug-05 14:59N 44°09' E 028°49'0 0.0
2018-Aug-05 13:59N 44°09' E 028°49'0 0.0
2018-Aug-05 13:29N 44°09' E 028°49'0 0.0
2018-Aug-05 12:59N 44°09' E 028°49'0 0.0
2018-Aug-05 12:26N 44°09' E 028°49'0 0.0
2018-Aug-05 11:59N 44°09' E 028°49'0 0.0
2018-Aug-05 11:26N 44°09' E 028°49'0 0.0
2018-Aug-05 10:59N 44°09' E 028°49'0 0.0
2018-Aug-05 10:29N 44°09' E 028°49'0 0.0
2018-Aug-05 09:59N 44°09' E 028°49'0 0.0
2018-Aug-05 09:23N 44°09' E 028°49'0 0.0
2018-Aug-05 08:59N 44°09' E 028°49'0 0.0
2018-Aug-05 08:29N 44°09' E 028°49'0 0.0
2018-Aug-05 07:59N 44°09' E 028°49'0 0.0
2018-Aug-05 07:29N 44°09' E 028°49'0 0.0
2018-Aug-05 06:59N 44°09' E 028°49'0 0.0
2018-Aug-05 06:29N 44°09' E 028°49'0 0.0
2018-Aug-05 05:59N 44°09' E 028°49'0 0.0
2018-Aug-05 05:29N 44°09' E 028°49'0 0.0
2018-Aug-05 04:59N 44°09' E 028°49'0 0.0
2018-Aug-05 04:26N 44°09' E 028°49'0 0.0
2018-Aug-05 03:59N 44°09' E 028°49'0 0.0
2018-Aug-05 03:29N 44°09' E 028°49'0 0.0
2018-Aug-05 02:56N 44°09' E 028°49'0 0.0
2018-Aug-05 02:29N 44°09' E 028°49'0 0.0
2018-Aug-05 01:59N 44°09' E 028°49'0 0.0
2018-Aug-05 01:29N 44°09' E 028°49'0 0.0
2018-Aug-05 00:56N 44°09' E 028°49'0 0.0
2018-Aug-05 00:26N 44°09' E 028°49'0 0.0
2018-Aug-04 23:59N 44°09' E 028°49'0 0.0
2018-Aug-04 23:29N 44°09' E 028°49'0 0.0
2018-Aug-04 22:59N 44°09' E 028°49'0 0.0
2018-Aug-04 22:29N 44°09' E 028°49'0 0.0
2018-Aug-04 21:59N 44°09' E 028°49'0 0.0
2018-Aug-04 21:29N 44°09' E 028°49'0 0.0
2018-Aug-04 20:59N 44°09' E 028°49'0 0.0
2018-Aug-04 20:29N 44°09' E 028°49'0 0.0
2018-Aug-04 19:59N 44°09' E 028°49'0 0.0
2018-Aug-04 19:26N 44°09' E 028°49'0 0.0
2018-Aug-04 18:56N 44°09' E 028°49'0 0.0
2018-Aug-04 18:29N 44°09' E 028°49'0 0.0
2018-Aug-04 17:59N 44°09' E 028°49'0 0.0
2018-Aug-04 17:29N 44°09' E 028°49'0 0.0
2018-Aug-04 16:59N 44°09' E 028°49'0 0.0
2018-Aug-04 16:29N 44°09' E 028°49'0 0.0
2018-Aug-04 15:59N 44°09' E 028°49'0 0.0
2018-Aug-04 15:29N 44°09' E 028°49'0 0.0
2018-Aug-04 14:59N 44°09' E 028°49'0 0.0
2018-Aug-04 14:29N 44°09' E 028°49'0 0.0
2018-Aug-04 13:59N 44°09' E 028°49'0 0.0
2018-Aug-04 13:29N 44°09' E 028°49'0 0.0
2018-Aug-04 12:56N 44°09' E 028°49'0 0.0
2018-Aug-04 12:29N 44°09' E 028°49'0 0.0
2018-Aug-04 11:59N 44°09' E 028°49'0 0.0
2018-Aug-04 11:26N 44°09' E 028°49'0 0.0
2018-Aug-04 10:59N 44°09' E 028°49'0 0.0
2018-Aug-04 10:29N 44°09' E 028°49'0 0.0
2018-Aug-04 09:59N 44°09' E 028°49'0 0.0
2018-Aug-04 09:29N 44°09' E 028°49'0 0.0
2018-Aug-04 08:59N 44°09' E 028°49'0 0.0
2018-Aug-04 08:29N 44°09' E 028°49'0 0.0
2018-Aug-04 07:59N 44°09' E 028°49'0 0.0
2018-Aug-04 07:29N 44°09' E 028°49'0 0.0
2018-Aug-04 06:59N 44°09' E 028°49'0 0.0
2018-Aug-04 06:29N 44°09' E 028°49'  
Track history (hours):
 
Tides and Currents Weather Stations Pressure Air Temp Water Temp Dewpoint Dewpoint Depression Visibility Wind Speed Wind Dir Waves Ship Positions

Polaris

Last reported at 2018-Aug-14 06:22 UTC. Time now 2018-Aug-14 15:21 UTC.
Position N 42°30' E 027°35'.

Length 82 m; draft 5.6 m.

Type: Ship (hazmat cat C). MMSI: 207345200.

Date/timePositionNaut miles runAvg speedWind from/ knotsBaromVisibWave heightAir tempDewpointWater temp
2018-Aug-14 06:22N 42°30' E 027°35'0 0.0
2018-Aug-14 05:55N 42°30' E 027°35'0 0.0
2018-Aug-14 05:22N 42°30' E 027°35'0 0.0
2018-Aug-14 04:55N 42°30' E 027°35'0 0.0
2018-Aug-14 04:22N 42°30' E 027°35'0 0.0
2018-Aug-14 03:52N 42°30' E 027°35'0 0.0
2018-Aug-14 03:28N 42°30' E 027°35'0 0.0
2018-Aug-14 02:34N 42°30' E 027°35'  
2018-Aug-08 04:18N 43°02' E 028°16'4 8.0
2018-Aug-08 03:52N 43°05' E 028°19'16 7.6
2018-Aug-08 01:45N 43°17' E 028°34'3 7.4
2018-Aug-08 01:25N 43°19' E 028°36'10 7.2
2018-Aug-08 00:04N 43°27' E 028°43'0 7.2
2018-Aug-08 00:00N 43°27' E 028°43'4 7.2
2018-Aug-07 23:30N 43°31' E 028°45'3 7.0
2018-Aug-07 23:00N 43°34' E 028°46'4 7.1
2018-Aug-07 22:30N 43°38' E 028°47'4 7.4
2018-Aug-07 22:00N 43°41' E 028°48'4 7.3
2018-Aug-07 21:30N 43°45' E 028°50'4 7.3
2018-Aug-07 21:00N 43°48' E 028°51'4 7.3
2018-Aug-07 20:30N 43°52' E 028°52'4 7.1
2018-Aug-07 20:00N 43°55' E 028°52'3 6.9
2018-Aug-07 19:30N 43°59' E 028°53'3 6.8
2018-Aug-07 19:00N 44°02' E 028°52'3 6.7
2018-Aug-07 18:30N 44°05' E 028°51'4 7.1
2018-Aug-07 18:00N 44°09' E 028°51'3 6.2
2018-Aug-07 17:30N 44°12' E 028°49'3 6.6
2018-Aug-07 17:00N 44°14' E 028°46'3 6.6
2018-Aug-07 16:30N 44°17' E 028°43'3 6.4
2018-Aug-07 16:00N 44°20' E 028°41'1 1.4
2018-Aug-07 15:28N 44°20' E 028°40'0 0.0
2018-Aug-07 14:59N 44°20' E 028°40'0 0.0
2018-Aug-07 14:29N 44°20' E 028°40'0 0.0
2018-Aug-07 13:59N 44°20' E 028°40'0 0.0
2018-Aug-07 13:28N 44°20' E 028°40'0 0.0
2018-Aug-07 12:59N 44°20' E 028°40'0 0.0
2018-Aug-07 12:29N 44°20' E 028°40'0 0.0
2018-Aug-07 11:59N 44°20' E 028°40'0 0.0
2018-Aug-07 11:29N 44°20' E 028°40'0 0.0
2018-Aug-07 10:56N 44°20' E 028°40'0 0.0
2018-Aug-07 10:29N 44°20' E 028°40'0 0.0
2018-Aug-07 09:58N 44°20' E 028°40'0 0.0
2018-Aug-07 09:29N 44°20' E 028°40'0 0.0
2018-Aug-07 08:16N 44°20' E 028°40'0 0.0
2018-Aug-07 07:50N 44°20' E 028°40'0 0.0
2018-Aug-07 07:04N 44°20' E 028°40'0 0.0
2018-Aug-07 06:58N 44°20' E 028°40'0 0.0
2018-Aug-07 06:25N 44°20' E 028°40'0 0.0
2018-Aug-07 05:58N 44°20' E 028°40'0 0.0
2018-Aug-07 05:29N 44°20' E 028°40'0 0.0
2018-Aug-07 04:59N 44°20' E 028°40'0 0.0
2018-Aug-07 04:29N 44°20' E 028°40'0 0.0
2018-Aug-07 03:58N 44°20' E 028°40'0 0.0
2018-Aug-07 03:29N 44°20' E 028°40'0 0.0
2018-Aug-07 02:59N 44°20' E 028°40'0 0.0
2018-Aug-07 02:28N 44°20' E 028°40'0 0.0
2018-Aug-07 01:59N 44°20' E 028°40'0 0.0
2018-Aug-07 01:28N 44°20' E 028°40'0 0.0
2018-Aug-07 00:59N 44°20' E 028°40'0 0.0
2018-Aug-07 00:23N 44°20' E 028°40'0 0.0
2018-Aug-06 23:59N 44°20' E 028°40'0 0.0
2018-Aug-06 23:26N 44°20' E 028°40'0 0.0
2018-Aug-06 22:58N 44°20' E 028°40'0 0.0
2018-Aug-06 22:29N 44°20' E 028°40'0 0.0
2018-Aug-06 21:58N 44°20' E 028°40'0 0.0
2018-Aug-06 21:29N 44°20' E 028°40'0 0.0
2018-Aug-06 20:59N 44°20' E 028°40'0 0.0
2018-Aug-06 20:28N 44°20' E 028°40'0 0.0
2018-Aug-06 19:59N 44°20' E 028°40'0 0.0
2018-Aug-06 19:26N 44°20' E 028°40'0 0.0
2018-Aug-06 18:58N 44°20' E 028°40'0 0.0
2018-Aug-06 18:14N 44°20' E 028°40'0 0.0
2018-Aug-06 17:59N 44°20' E 028°40'0 0.0
2018-Aug-06 17:28N 44°20' E 028°40'0 0.0
2018-Aug-06 16:58N 44°20' E 028°40'0 0.0
2018-Aug-06 16:28N 44°20' E 028°40'0 0.0
2018-Aug-06 15:56N 44°20' E 028°40'0 0.0
2018-Aug-06 15:29N 44°20' E 028°40'0 0.0
2018-Aug-06 14:53N 44°20' E 028°40'0 0.0
2018-Aug-06 14:25N 44°20' E 028°40'0 0.0
2018-Aug-06 13:58N 44°20' E 028°40'0 0.0
2018-Aug-06 13:29N 44°20' E 028°40'0 0.0
2018-Aug-06 12:58N 44°20' E 028°40'0 0.0
2018-Aug-06 12:29N 44°20' E 028°40'0 0.0
2018-Aug-06 11:56N 44°20' E 028°40'0 0.0
2018-Aug-06 11:30N 44°20' E 028°40'0 0.2
2018-Aug-06 11:00N 44°20' E 028°40'2 4.5
2018-Aug-06 10:30N 44°18' E 028°42'3 6.6
2018-Aug-06 10:00N 44°15' E 028°45'3 6.7
2018-Aug-06 09:30N 44°14' E 028°49'3 6.4
2018-Aug-06 09:00N 44°11' E 028°52'2 3.9
2018-Aug-06 08:30N 44°10' E 028°51'1 2.5
2018-Aug-06 07:59N 44°09' E 028°49'0 0.0
2018-Aug-06 07:29N 44°09' E 028°49'0 0.0
2018-Aug-06 06:59N 44°09' E 028°49'0 0.0
2018-Aug-06 06:23N 44°09' E 028°49'0 0.0
2018-Aug-06 05:56N 44°09' E 028°49'0 0.0
2018-Aug-06 05:29N 44°09' E 028°49'0 0.0
2018-Aug-06 04:59N 44°09' E 028°49'0 0.0
2018-Aug-06 04:29N 44°09' E 028°49'0 0.0
2018-Aug-06 03:59N 44°09' E 028°49'0 0.0
2018-Aug-06 03:29N 44°09' E 028°49'0 0.0
2018-Aug-06 02:59N 44°09' E 028°49'0 0.0
2018-Aug-06 02:29N 44°09' E 028°49'0 0.0
2018-Aug-06 01:59N 44°09' E 028°49'0 0.0
2018-Aug-06 01:29N 44°09' E 028°49'0 0.0
2018-Aug-06 00:59N 44°09' E 028°49'0 0.0
2018-Aug-06 00:29N 44°09' E 028°49'0 0.0
2018-Aug-05 23:56N 44°09' E 028°49'0 0.0
2018-Aug-05 23:26N 44°09' E 028°49'0 0.0
2018-Aug-05 22:56N 44°09' E 028°49'0 0.0
2018-Aug-05 22:29N 44°09' E 028°49'0 0.0
2018-Aug-05 21:56N 44°09' E 028°49'0 0.0
2018-Aug-05 21:29N 44°09' E 028°49'0 0.0
2018-Aug-05 20:59N 44°09' E 028°49'0 0.1
2018-Aug-05 20:29N 44°09' E 028°49'0 0.0
2018-Aug-05 19:59N 44°09' E 028°49'0 0.0
2018-Aug-05 19:26N 44°09' E 028°49'0 0.0
2018-Aug-05 18:59N 44°09' E 028°49'0 0.0
2018-Aug-05 18:29N 44°09' E 028°49'0 0.0
2018-Aug-05 17:59N 44°09' E 028°49'0 0.1
2018-Aug-05 17:29N 44°09' E 028°49'0 0.0
2018-Aug-05 16:56N 44°09' E 028°49'0 0.0
2018-Aug-05 16:26N 44°09' E 028°49'0 0.0
2018-Aug-05 15:56N 44°09' E 028°49'0 0.1
2018-Aug-05 15:29N 44°09' E 028°49'0 0.0
2018-Aug-05 14:59N 44°09' E 028°49'0 0.0
2018-Aug-05 13:59N 44°09' E 028°49'0 0.0
2018-Aug-05 13:29N 44°09' E 028°49'0 0.0
2018-Aug-05 12:59N 44°09' E 028°49'0 0.0
2018-Aug-05 12:26N 44°09' E 028°49'0 0.0
2018-Aug-05 11:59N 44°09' E 028°49'0 0.0
2018-Aug-05 11:26N 44°09' E 028°49'0 0.0
2018-Aug-05 10:59N 44°09' E 028°49'0 0.0
2018-Aug-05 10:29N 44°09' E 028°49'0 0.0
2018-Aug-05 09:59N 44°09' E 028°49'0 0.0
2018-Aug-05 09:23N 44°09' E 028°49'0 0.0
2018-Aug-05 08:59N 44°09' E 028°49'0 0.0
2018-Aug-05 08:29N 44°09' E 028°49'0 0.0
2018-Aug-05 07:59N 44°09' E 028°49'0 0.0
2018-Aug-05 07:29N 44°09' E 028°49'0 0.0
2018-Aug-05 06:59N 44°09' E 028°49'0 0.0
2018-Aug-05 06:29N 44°09' E 028°49'0 0.0
2018-Aug-05 05:59N 44°09' E 028°49'0 0.0
2018-Aug-05 05:29N 44°09' E 028°49'0 0.0
2018-Aug-05 04:59N 44°09' E 028°49'0 0.0
2018-Aug-05 04:26N 44°09' E 028°49'0 0.0
2018-Aug-05 03:59N 44°09' E 028°49'0 0.0
2018-Aug-05 03:29N 44°09' E 028°49'0 0.0
2018-Aug-05 02:56N 44°09' E 028°49'0 0.0
2018-Aug-05 02:29N 44°09' E 028°49'0 0.0
2018-Aug-05 01:59N 44°09' E 028°49'0 0.0
2018-Aug-05 01:29N 44°09' E 028°49'0 0.0
2018-Aug-05 00:56N 44°09' E 028°49'0 0.0
2018-Aug-05 00:26N 44°09' E 028°49'0 0.0
2018-Aug-04 23:59N 44°09' E 028°49'0 0.0
2018-Aug-04 23:29N 44°09' E 028°49'0 0.0
2018-Aug-04 22:59N 44°09' E 028°49'0 0.0
2018-Aug-04 22:29N 44°09' E 028°49'0 0.0
2018-Aug-04 21:59N 44°09' E 028°49'0 0.0
2018-Aug-04 21:29N 44°09' E 028°49'0 0.0
2018-Aug-04 20:59N 44°09' E 028°49'0 0.0
2018-Aug-04 20:29N 44°09' E 028°49'0 0.0
2018-Aug-04 19:59N 44°09' E 028°49'0 0.0
2018-Aug-04 19:26N 44°09' E 028°49'0 0.0
2018-Aug-04 18:56N 44°09' E 028°49'0 0.0
2018-Aug-04 18:29N 44°09' E 028°49'0 0.0
2018-Aug-04 17:59N 44°09' E 028°49'0 0.0
2018-Aug-04 17:29N 44°09' E 028°49'0 0.0
2018-Aug-04 16:59N 44°09' E 028°49'0 0.0
2018-Aug-04 16:29N 44°09' E 028°49'0 0.0
2018-Aug-04 15:59N 44°09' E 028°49'0 0.0
2018-Aug-04 15:29N 44°09' E 028°49'0 0.0
2018-Aug-04 14:59N 44°09' E 028°49'0 0.0
2018-Aug-04 14:29N 44°09' E 028°49'0 0.0
2018-Aug-04 13:59N 44°09' E 028°49'0 0.0
2018-Aug-04 13:29N 44°09' E 028°49'0 0.0
2018-Aug-04 12:56N 44°09' E 028°49'0 0.0
2018-Aug-04 12:29N 44°09' E 028°49'0 0.0
2018-Aug-04 11:59N 44°09' E 028°49'0 0.0
2018-Aug-04 11:26N 44°09' E 028°49'0 0.0
2018-Aug-04 10:59N 44°09' E 028°49'0 0.0
2018-Aug-04 10:29N 44°09' E 028°49'0 0.0
2018-Aug-04 09:59N 44°09' E 028°49'0 0.0
2018-Aug-04 09:29N 44°09' E 028°49'0 0.0
2018-Aug-04 08:59N 44°09' E 028°49'0 0.0
2018-Aug-04 08:29N 44°09' E 028°49'0 0.0
2018-Aug-04 07:59N 44°09' E 028°49'0 0.0
2018-Aug-04 07:29N 44°09' E 028°49'0 0.0
2018-Aug-04 06:59N 44°09' E 028°49'0 0.0
2018-Aug-04 06:29N 44°09' E 028°49'  

Dump ship's entire track history